Time;durP1;ratioP1;P1;durP2;ratioP2;P2;SDS_P1;SDS_P2;PMS_P1;PMS_P2;Temp;Humidity;BMP_temperature;BMP_pressure;BME280_temperature;BME280_humidity;BME280_pressure;Samples;Min_cycle;Max_cycle;Signal;HPM_P1;HPM_P2
2022/02/18 00:00:14;;;;;;;21.77;3.20;;;;;;;-142.75;100.00;77454.25;5030289;28;20071;-67
2022/02/18 00:02:40;;;;;;;16.52;2.33;;;;;;;-142.75;100.00;77458.16;5030386;28;20036;-67
2022/02/18 00:05:05;;;;;;;16.97;2.60;;;;;;;-142.75;100.00;77452.25;5028872;28;20022;-67
2022/02/18 00:07:30;;;;;;;13.80;2.60;;;;;;;-142.75;100.00;77452.25;5030397;28;20037;-67
2022/02/18 00:09:56;;;;;;;11.85;2.20;;;;;;;-142.75;100.00;77456.22;5030044;28;20409;-67
2022/02/18 00:12:21;;;;;;;16.47;2.73;;;;;;;-142.75;100.00;77436.50;5029108;28;20024;-67
2022/02/18 00:14:47;;;;;;;12.60;2.75;;;;;;;-142.75;100.00;77440.44;5030340;28;20276;-67
2022/02/18 00:17:12;;;;;;;15.45;2.78;;;;;;;-142.75;100.00;77438.47;5030156;28;20445;-67
2022/02/18 00:19:37;;;;;;;15.93;2.22;;;;;;;-142.75;100.00;77426.66;5029879;28;20113;-67
2022/02/18 00:22:03;;;;;;;14.07;1.90;;;;;;;-142.75;100.00;77424.69;5031460;28;20025;-68
2022/02/18 00:24:29;;;;;;;12.02;2.00;;;;;;;-142.75;100.00;77428.63;5045697;28;20622;-68
2022/02/18 00:26:54;;;;;;;13.82;2.60;;;;;;;-142.75;100.00;77424.69;5053542;28;20091;-67
2022/02/18 00:29:19;;;;;;;10.77;2.40;;;;;;;-142.75;100.00;77412.88;5053445;28;20100;-67
2022/02/18 00:31:45;;;;;;;22.25;2.38;;;;;;;-142.75;100.00;77418.78;5053735;28;20083;-67
2022/02/18 00:34:10;;;;;;;11.25;2.20;;;;;;;-142.75;100.00;77408.94;5053479;28;20441;-67
2022/02/18 00:36:35;;;;;;;14.70;2.53;;;;;;;-142.75;100.00;77414.84;5053529;28;20459;-67
2022/02/18 00:39:01;;;;;;;18.13;2.47;;;;;;;-142.75;100.00;77406.97;5053281;28;20275;-67
2022/02/18 00:41:26;;;;;;;14.20;2.40;;;;;;;-142.75;100.00;77403.03;5053480;28;20273;-67
2022/02/18 00:43:51;;;;;;;12.45;2.80;;;;;;;-142.75;100.00;77401.06;5053434;28;20044;-67
2022/02/18 00:46:17;;;;;;;28.58;2.88;;;;;;;-142.75;100.00;77399.09;5053220;28;20009;-67
2022/02/18 00:48:42;;;;;;;11.13;2.22;;;;;;;-142.75;100.00;77401.06;5053038;28;20033;-67
2022/02/18 00:51:08;;;;;;;19.73;2.15;;;;;;;-142.75;100.00;77408.94;5053263;28;20025;-67
2022/02/18 00:53:33;;;;;;;14.50;2.53;;;;;;;-142.75;100.00;77416.81;5053230;28;20041;-67
2022/02/18 00:55:59;;;;;;;16.33;2.00;;;;;;;-142.75;100.00;77414.84;5053073;28;20021;-67
2022/02/18 00:58:24;;;;;;;17.23;2.55;;;;;;;-142.75;100.00;77403.03;5052920;28;20028;-67
2022/02/18 01:00:51;;;;;;;16.90;2.42;;;;;;;-142.75;100.00;77399.09;5053073;28;20033;-67
2022/02/18 01:03:19;;;;;;;14.77;2.00;;;;;;;-142.75;100.00;77393.19;5052963;28;20036;-67
2022/02/18 01:05:46;;;;;;;17.30;2.47;;;;;;;-142.75;100.00;77387.28;5052799;28;20435;-67
2022/02/18 01:08:12;;;;;;;16.37;2.17;;;;;;;-142.75;100.00;77389.25;5052662;28;20021;-67
2022/02/18 01:10:37;;;;;;;17.58;2.42;;;;;;;-142.75;100.00;77387.28;5052886;28;20104;-67
2022/02/18 01:13:03;;;;;;;16.33;2.67;;;;;;;-142.75;100.00;77385.31;5052934;28;20031;-67
2022/02/18 01:15:28;;;;;;;18.67;2.88;;;;;;;-142.75;100.00;77381.38;5052757;28;20042;-67
2022/02/18 01:17:53;;;;;;;13.43;2.67;;;;;;;-142.75;100.00;77385.31;5052412;28;20039;-67
2022/02/18 01:20:20;;;;;;;18.55;2.10;;;;;;;-142.75;100.00;77379.41;5052721;28;20020;-67
2022/02/18 01:22:45;;;;;;;12.27;2.37;;;;;;;-142.75;100.00;77373.50;5052711;28;20368;-67
2022/02/18 01:25:10;;;;;;;17.58;2.22;;;;;;;-142.75;100.00;77373.50;5052494;28;20020;-67
2022/02/18 01:27:39;;;;;;;15.32;2.63;;;;;;;-142.75;100.00;77363.66;5052622;28;20032;-67
2022/02/18 01:30:05;;;;;;;19.03;2.40;;;;;;;-142.75;100.00;77357.75;5052326;28;20029;-67
2022/02/18 01:32:30;;;;;;;;;;;;;;;-142.75;100.00;77367.59;5052541;28;20033;-67
2022/02/18 01:34:58;;;;;;;21.83;2.40;;;;;;;-142.75;100.00;77361.69;5052437;28;19919;-67
2022/02/18 01:37:24;;;;;;;15.00;2.17;;;;;;;-142.75;100.00;77357.75;5052458;28;20028;-67
2022/02/18 01:39:49;;;;;;;14.68;2.40;;;;;;;-142.75;100.00;77347.91;5050813;28;20553;-67
2022/02/18 01:42:14;;;;;;;17.23;2.33;;;;;;;-142.75;100.00;77349.88;5052522;28;20394;-67
2022/02/18 01:44:48;;;;;;;15.02;1.95;;;;;;;-142.75;100.00;77349.88;5050874;28;20043;-67
2022/02/18 01:47:16;;;;;;;19.00;3.77;;;;;;;-142.75;100.00;77338.06;5052112;28;20387;-67
2022/02/18 01:49:42;;;;;;;22.47;3.60;;;;;;;-142.75;100.00;77342.00;5051908;28;20032;-67
2022/02/18 01:52:09;;;;;;;16.13;3.03;;;;;;;-142.75;100.00;77334.13;5052315;28;20429;-67
2022/02/18 01:54:35;;;;;;;18.70;3.33;;;;;;;-142.75;100.00;77334.13;5052067;28;20089;-67
2022/02/18 01:57:00;;;;;;;13.32;3.00;;;;;;;-142.75;100.00;77334.13;5052051;28;20028;-67
2022/02/18 01:59:29;;;;;;;9.25;2.67;;;;;;;-142.75;100.00;77322.31;5051693;28;20032;-67
2022/02/18 02:01:55;;;;;;;14.83;2.60;;;;;;;-142.75;100.00;77322.31;5051893;28;20063;-67
2022/02/18 02:04:21;;;;;;;16.17;2.60;;;;;;;-142.75;100.00;77314.44;5051812;28;20060;-66
2022/02/18 02:06:47;;;;;;;15.68;2.88;;;;;;;-142.75;100.00;77296.72;5051836;28;20122;-67
2022/02/18 02:09:13;;;;;;;20.13;3.33;;;;;;;-142.75;100.00;77300.66;5051518;28;20024;-67
2022/02/18 02:11:38;;;;;;;18.85;3.38;;;;;;;-142.75;100.00;77292.78;5051774;28;20036;-67
2022/02/18 02:14:05;;;;;;;25.40;3.80;;;;;;;-142.75;100.00;77290.81;5051543;28;20103;-67
2022/02/18 02:16:31;;;;;;;16.30;3.03;;;;;;;-142.75;100.00;77288.84;5051628;28;20020;-67
2022/02/18 02:18:57;;;;;;;20.83;3.37;;;;;;;-142.75;100.00;77290.81;5051284;28;20071;-67
2022/02/18 02:21:23;;;;;;;26.95;3.47;;;;;;;-142.75;100.00;77302.63;5051593;28;20028;-67
2022/02/18 02:23:48;;;;;;;18.13;3.40;;;;;;;-142.75;100.00;77294.75;5051473;28;20025;-67
2022/02/18 02:26:15;;;;;;;22.90;3.22;;;;;;;-142.75;100.00;77306.56;5051241;28;20040;-67
2022/02/18 02:28:40;;;;;;;16.90;4.10;;;;;;;-142.75;100.00;77306.56;5051013;28;20033;-67
2022/02/18 02:31:06;;;;;;;20.80;2.50;;;;;;;-142.75;100.00;77292.78;5051457;28;20059;-67
2022/02/18 02:33:33;;;;;;;25.38;4.40;;;;;;;-142.75;100.00;77286.88;5051385;28;20055;-67
2022/02/18 02:35:59;;;;;;;20.13;3.20;;;;;;;-142.75;100.00;77290.81;5051208;28;20364;-67
2022/02/18 02:38:24;;;;;;;14.18;3.20;;;;;;;-142.75;100.00;77279.00;5049566;28;20059;-66
2022/02/18 02:40:49;;;;;;;23.13;3.17;;;;;;;-142.75;100.00;77267.19;5031416;28;20029;-66
2022/02/18 02:43:15;;;;;;;24.03;3.47;;;;;;;-142.75;100.00;77269.16;5031221;28;20029;-67
2022/02/18 02:45:40;;;;;;;28.65;4.13;;;;;;;-142.75;100.00;77273.09;5030291;28;20025;-66
2022/02/18 02:48:06;;;;;;;24.70;3.53;;;;;;;-142.75;100.00;77282.94;5031014;28;20283;-66
2022/02/18 02:50:31;;;;;;;31.35;3.42;;;;;;;-142.75;100.00;77279.00;5029786;28;20029;-66
2022/02/18 02:52:57;;;;;;;33.05;3.72;;;;;;;-142.75;100.00;77273.09;5031192;28;20103;-66
2022/02/18 02:55:22;;;;;;;34.10;4.07;;;;;;;-142.75;100.00;77267.19;5031000;28;20017;-66
2022/02/18 02:57:48;;;;;;;29.52;5.07;;;;;;;-142.75;100.00;77267.19;5031036;28;20054;-65
2022/02/18 03:00:15;;;;;;;33.20;4.20;;;;;;;-142.75;100.00;77265.22;5031630;28;20030;-66
2022/02/18 03:02:41;;;;;;;27.73;4.80;;;;;;;-142.75;100.00;77247.50;5031098;28;20391;-66
2022/02/18 03:05:07;;;;;;;;;;;;;;;-142.75;100.00;77249.47;5031195;28;20029;-66
2022/02/18 03:07:33;;;;;;;32.17;4.10;;;;;;;-142.75;100.00;77243.56;5029907;28;19924;-66
2022/02/18 03:09:58;;;;;;;33.58;5.38;;;;;;;-142.75;100.00;77227.81;5030625;28;20025;-66
2022/02/18 03:12:24;;;;;;;33.47;5.85;;;;;;;-142.75;100.00;77221.91;5030855;28;20025;-66
2022/02/18 03:14:49;;;;;;;32.55;4.95;;;;;;;-142.75;100.00;77204.19;5029674;28;20044;-66
2022/02/18 03:17:15;;;;;;;32.58;5.00;;;;;;;-142.75;100.00;77192.38;5030757;28;20052;-66
2022/02/18 03:19:40;;;;;;;32.78;4.97;;;;;;;-142.75;100.00;77202.22;5029285;28;20100;-66
2022/02/18 03:22:08;;;;;;;30.92;4.40;;;;;;;-142.75;100.00;77188.44;5030775;28;20033;-66
2022/02/18 03:24:34;;;;;;;29.50;4.40;;;;;;;-142.75;100.00;77186.47;5030790;28;20033;-66
2022/02/18 03:27:00;;;;;;;39.03;5.63;;;;;;;-142.75;100.00;77186.47;5075295;23;20045;-68
2022/02/18 03:29:26;;;;;;;36.95;5.28;;;;;;;-142.75;100.00;77184.50;5063284;28;20402;-68
2022/02/18 03:31:52;;;;;;;33.70;5.60;;;;;;;-142.75;100.00;77158.91;5068988;28;20025;-68
2022/02/18 03:34:17;;;;;;;37.72;5.90;;;;;;;-142.75;100.00;77147.09;5069517;28;20401;-68
2022/02/18 03:36:42;;;;;;;27.20;5.53;;;;;;;-142.75;100.00;77129.38;5069324;28;20036;-67
2022/02/18 03:39:09;;;;;;;40.22;6.15;;;;;;;-142.75;100.00;77133.31;5069125;28;20279;-68
2022/02/18 03:41:34;;;;;;;45.13;6.37;;;;;;;-142.75;100.00;77121.50;5070585;28;20020;-67
2022/02/18 03:44:00;;;;;;;39.30;5.82;;;;;;;-142.75;100.00;77125.44;5069351;28;20062;-68
2022/02/18 03:46:25;;;;;;;43.70;5.68;;;;;;;-142.75;100.00;77105.75;5070224;28;20055;-69
2022/02/18 03:48:51;;;;;;;28.88;5.07;;;;;;;-142.75;100.00;77101.81;5069027;28;20056;-68
2022/02/18 03:51:16;;;;;;;37.87;6.17;;;;;;;-142.75;100.00;77084.09;5070509;28;20094;-68
2022/02/18 03:53:43;;;;;;;40.08;5.05;;;;;;;-142.75;100.00;77086.06;5070567;28;20037;-69
2022/02/18 03:56:08;;;;;;;29.40;5.10;;;;;;;-142.75;100.00;77078.19;5071832;28;20028;-68
2022/02/18 03:58:34;;;;;;;47.95;5.22;;;;;;;-142.75;100.00;77082.13;5074204;28;20386;-66
2022/02/18 04:00:59;;;;;;;31.92;5.85;;;;;;;-142.75;100.00;77086.06;5073115;28;20028;-67
2022/02/18 04:03:25;;;;;;;33.47;5.75;;;;;;;-142.75;100.00;77066.38;5074344;28;20103;-68
2022/02/18 04:05:50;;;;;;;40.38;5.32;;;;;;;-142.75;100.00;77056.53;5073122;28;20032;-67
2022/02/18 04:08:15;;;;;;;24.77;4.88;;;;;;;-142.75;100.00;77050.63;5072706;28;20104;-68
2022/02/18 04:10:41;;;;;;;42.60;6.43;;;;;;;-142.75;100.00;77046.69;5074379;28;20076;-68
2022/02/18 04:13:06;;;;;;;33.60;5.28;;;;;;;-142.75;100.00;77060.47;5073097;28;20305;-68
2022/02/18 04:15:33;;;;;;;38.60;5.45;;;;;;;-142.75;100.00;77058.50;5073997;28;20032;-68
2022/02/18 04:17:58;;;;;;;35.40;5.07;;;;;;;-142.75;100.00;77052.59;5073878;28;20451;-68
2022/02/18 04:20:23;;;;;;;25.17;4.80;;;;;;;-142.75;100.00;77046.69;5074145;28;20044;-68
2022/02/18 04:22:49;;;;;;;32.35;5.05;;;;;;;-142.75;100.00;77034.88;5074208;28;20024;-68
2022/02/18 04:25:14;;;;;;;31.63;5.32;;;;;;;-142.75;100.00;77023.06;5074095;28;20016;-68
2022/02/18 04:27:39;;;;;;;38.45;5.93;;;;;;;-142.75;100.00;77027.00;5056390;28;20036;-68
2022/02/18 04:30:06;;;;;;;33.90;5.45;;;;;;;-142.75;100.00;77019.13;5053824;28;20028;-67
2022/02/18 04:32:31;;;;;;;;;;;;;;;-142.75;100.00;77025.03;5054377;28;20602;-68
2022/02/18 04:34:56;;;;;;;36.63;7.67;;;;;;;-142.75;100.00;77011.25;5052613;28;19999;-68
2022/02/18 04:37:21;;;;;;;32.30;6.90;;;;;;;-142.75;100.00;77001.41;5053895;28;20029;-67
2022/02/18 04:39:47;;;;;;;35.38;4.90;;;;;;;-142.75;100.00;76991.56;5053528;28;20275;-68
2022/02/18 04:42:12;;;;;;;32.92;5.53;;;;;;;-142.75;100.00;76979.75;5052526;28;20021;-67
2022/02/18 04:44:37;;;;;;;27.92;4.97;;;;;;;-142.75;100.00;76975.81;5052440;28;20437;-67
2022/02/18 04:47:03;;;;;;;33.80;5.40;;;;;;;-142.75;100.00;76975.81;5053531;28;20025;-67
2022/02/18 04:49:29;;;;;;;29.08;5.00;;;;;;;-142.75;100.00;76967.94;5053300;28;20029;-67
2022/02/18 04:51:55;;;;;;;37.22;5.47;;;;;;;-142.75;100.00;76960.06;5053718;28;20362;-67
2022/02/18 04:54:21;;;;;;;33.87;4.93;;;;;;;-142.75;100.00;76960.06;5053745;28;20031;-68
2022/02/18 04:56:47;;;;;;;43.75;5.97;;;;;;;-142.75;100.00;76956.13;5052613;28;20471;-67
2022/02/18 04:59:12;;;;;;;28.38;5.07;;;;;;;-142.75;100.00;76952.19;5053134;28;20074;-67
2022/02/18 05:01:38;;;;;;;35.83;4.63;;;;;;;-142.75;100.00;76944.31;5053325;28;20098;-68
2022/02/18 05:04:03;;;;;;;31.17;4.45;;;;;;;-142.75;100.00;76940.38;5053313;28;20055;-65
2022/02/18 05:06:29;;;;;;;35.40;4.97;;;;;;;-142.75;100.00;76928.56;5052956;28;20100;-68
2022/02/18 05:08:54;;;;;;;29.85;4.18;;;;;;;-142.75;100.00;76928.56;5050721;28;20505;-67
2022/02/18 05:11:19;;;;;;;31.67;5.57;;;;;;;-142.75;100.00;76928.56;5065205;28;20476;-68
2022/02/18 05:13:45;;;;;;;32.70;4.90;;;;;;;-142.75;100.00;76912.81;5073034;28;20020;-67
2022/02/18 05:16:10;;;;;;;31.13;4.80;;;;;;;-142.75;100.00;76914.78;5072965;28;20021;-67
2022/02/18 05:18:37;;;;;;;32.00;4.70;;;;;;;-142.75;100.00;76904.94;5072694;28;20352;-67
2022/02/18 05:21:02;;;;;;;26.40;4.43;;;;;;;-142.75;100.00;76893.13;5072861;28;20281;-66
2022/02/18 05:23:28;;;;;;;26.48;3.33;;;;;;;-142.75;100.00;76885.25;5071618;28;20028;-67
2022/02/18 05:25:53;;;;;;;21.70;4.53;;;;;;;-142.75;100.00;76879.34;5072825;28;20052;-68
2022/02/18 05:28:19;;;;;;;31.60;3.93;;;;;;;-142.75;100.00;76881.31;5072594;28;20316;-67
2022/02/18 05:30:44;;;;;;;26.40;3.78;;;;;;;-142.75;100.00;76867.53;5072608;28;20312;-67
2022/02/18 05:33:12;;;;;;;24.10;4.07;;;;;;;-142.75;100.00;76839.97;5072790;28;20028;-67
2022/02/18 05:35:38;;;;;;;23.97;3.70;;;;;;;-142.75;100.00;76828.16;5072567;28;20048;-67
2022/02/18 05:38:03;;;;;;;27.10;3.72;;;;;;;-142.75;100.00;76820.28;5072272;28;20030;-68
2022/02/18 05:40:29;;;;;;;25.52;4.18;;;;;;;-142.75;100.00;76822.25;5072314;28;20123;-67
2022/02/18 05:42:54;;;;;;;19.45;3.55;;;;;;;-142.75;100.00;76812.41;5072537;28;20077;-68
2022/02/18 05:45:19;;;;;;;26.92;4.60;;;;;;;-142.75;100.00;76810.44;5071029;28;20124;-68
2022/02/18 05:47:45;;;;;;;22.23;4.23;;;;;;;-142.75;100.00;76798.66;5072277;28;20035;-68
2022/02/18 05:50:11;;;;;;;25.90;5.25;;;;;;;-142.75;100.00;76786.84;5058333;28;20271;-68
2022/02/18 05:52:38;;;;;;;32.17;4.63;;;;;;;-142.75;100.00;76775.03;5054364;28;20020;-68
2022/02/18 05:55:04;;;;;;;23.27;5.10;;;;;;;-142.75;100.00;76777.00;5072089;28;20028;-67
2022/02/18 05:57:29;;;;;;;22.63;4.53;;;;;;;-142.75;100.00;76769.13;5072149;28;20398;-67
2022/02/18 05:59:55;;;;;;;21.10;4.13;;;;;;;-142.75;100.00;76757.31;5071798;28;20069;-68
2022/02/18 06:02:20;;;;;;;34.08;4.68;;;;;;;-142.75;100.00;76777.00;5071938;28;20271;-67
2022/02/18 06:04:45;;;;;;;22.88;4.30;;;;;;;-142.75;100.00;76767.16;5071503;28;20107;-66
2022/02/18 06:07:10;;;;;;;28.60;4.53;;;;;;;-142.75;100.00;76775.03;5071898;28;20017;-67
2022/02/18 06:09:36;;;;;;;26.85;4.05;;;;;;;-142.75;100.00;76765.19;5070350;28;20020;-67
2022/02/18 06:12:01;;;;;;;28.40;3.90;;;;;;;-142.75;100.00;76778.97;5071961;28;20032;-67
2022/02/18 06:14:26;;;;;;;31.80;3.97;;;;;;;-142.75;100.00;76782.91;5071786;28;20274;-67
2022/02/18 06:16:52;;;;;;;28.27;4.28;;;;;;;-142.75;100.00;76784.88;5071743;28;20052;-68
2022/02/18 06:19:17;;;;;;;29.48;4.95;;;;;;;-142.75;100.00;76796.69;5071335;28;20093;-67
2022/02/18 06:21:43;;;;;;;28.60;5.00;;;;;;;-142.75;100.00;76794.69;5071617;28;20032;-68
2022/02/18 06:24:09;;;;;;;29.50;4.40;;;;;;;-142.75;100.00;76796.69;5071586;28;20024;-67
2022/02/18 06:26:35;;;;;;;31.03;5.43;;;;;;;-142.75;100.00;76777.00;5071306;28;20043;-68
2022/02/18 06:29:00;;;;;;;33.53;5.22;;;;;;;-142.75;100.00;76759.28;5071237;28;20482;-67
2022/02/18 06:31:25;;;;;;;31.77;4.83;;;;;;;-142.75;100.00;76773.06;5071437;28;20478;-67
2022/02/18 06:33:51;;;;;;;31.17;6.35;;;;;;;-142.75;100.00;76769.13;5069959;28;20274;-66
2022/02/18 06:36:16;;;;;;;21.75;5.55;;;;;;;-142.75;100.00;76755.34;5050838;28;20021;-66
2022/02/18 06:38:44;;;;;;;30.20;6.28;;;;;;;-142.75;100.00;76753.38;5051280;28;20103;-67
2022/02/18 06:41:13;;;;;;;28.90;5.20;;;;;;;-142.75;100.00;76753.38;5050106;28;20017;-67
2022/02/18 06:43:38;;;;;;;25.07;5.00;;;;;;;-142.75;100.00;76737.63;5050097;28;20025;-67
2022/02/18 06:46:04;;;;;;;25.67;6.15;;;;;;;-142.75;100.00;76731.72;5049827;28;20025;-67
2022/02/18 06:48:30;;;;;;;27.38;5.88;;;;;;;-142.75;100.00;76723.84;5061097;28;20024;-67
2022/02/18 06:50:55;;;;;;;35.45;5.72;;;;;;;-142.75;100.00;76717.94;5071138;28;20092;-67
2022/02/18 06:53:20;;;;;;;25.67;6.78;;;;;;;-142.75;100.00;76710.06;5062460;28;20053;-67
2022/02/18 06:55:46;;;;;;;25.02;7.53;;;;;;;-142.75;100.00;76708.09;5050936;28;20536;-66
2022/02/18 06:58:12;;;;;;;24.75;6.90;;;;;;;-142.75;100.00;76704.16;5050730;28;20032;-67
2022/02/18 07:00:37;;;;;;;32.63;7.47;;;;;;;-142.75;100.00;76708.09;5051086;28;20025;-67
2022/02/18 07:03:03;;;;;;;38.35;9.93;;;;;;;-142.75;100.00;76702.19;5050982;28;20456;-67
2022/02/18 07:05:28;;;;;;;28.38;9.48;;;;;;;-142.75;100.00;76684.47;5050588;28;20478;-66
2022/02/18 07:07:54;;;;;;;36.85;9.20;;;;;;;-142.75;100.00;76684.47;5050737;28;20025;-66
2022/02/18 07:10:20;;;;;;;30.83;9.15;;;;;;;-142.75;100.00;76678.56;5050930;28;20026;-68
2022/02/18 07:12:45;;;;;;;33.33;8.13;;;;;;;-142.75;100.00;76668.72;5049710;28;20117;-66
2022/02/18 07:15:11;;;;;;;28.02;8.85;;;;;;;-142.75;100.00;76660.84;5050737;28;20497;-67
2022/02/18 07:17:36;;;;;;;32.42;8.65;;;;;;;-142.75;100.00;76651.00;5050715;28;20052;-67
2022/02/18 07:20:04;;;;;;;26.52;9.00;;;;;;;-142.75;100.00;76631.31;5050582;28;20438;-68
2022/02/18 07:22:33;;;;;;;27.83;9.50;;;;;;;-142.75;100.00;76629.34;5049627;28;20159;-67
2022/02/18 07:24:58;;;;;;;37.57;10.20;;;;;;;-142.75;100.00;76615.56;5050737;28;20025;-66
2022/02/18 07:27:24;;;;;;;36.72;11.18;;;;;;;-142.75;100.00;76605.72;5049300;28;20410;-67
2022/02/18 07:29:49;;;;;;;33.63;9.93;;;;;;;-142.75;100.00;76586.03;5049022;28;20379;-66
2022/02/18 07:32:14;;;;;;;28.55;11.13;;;;;;;-142.75;100.00;76570.28;5056876;28;20021;-66
2022/02/18 07:34:40;;;;;;;29.50;10.32;;;;;;;-142.75;100.00;76552.56;5057241;28;20104;-66
2022/02/18 07:37:06;;;;;;;34.97;12.20;;;;;;;-142.75;100.00;76536.84;5055120;28;20055;-67
2022/02/18 07:39:31;;;;;;;31.35;10.50;;;;;;;-142.75;100.00;76542.72;5060399;28;20478;-66
2022/02/18 07:41:57;;;;;;;29.65;11.85;;;;;;;-142.75;100.00;76527.00;5075012;28;20031;-66
2022/02/18 07:44:22;;;;;;;27.83;11.98;;;;;;;-142.75;100.00;76509.28;5076174;28;20075;-67
2022/02/18 07:46:48;;;;;;;32.08;10.43;;;;;;;-142.75;100.00;76491.56;5076199;28;20025;-66
2022/02/18 07:49:14;;;;;;;27.02;10.57;;;;;;;-142.75;100.00;76473.84;5069345;28;20031;-65
2022/02/18 07:51:40;;;;;;;23.00;10.50;;;;;;;-142.75;100.00;76454.16;5074697;28;20482;-66
2022/02/18 07:54:06;;;;;;;24.13;9.50;;;;;;;-142.75;100.00;76442.34;5076203;28;20056;-66
2022/02/18 07:56:33;;;;;;;28.60;11.20;;;;;;;-142.75;100.00;76436.44;5076168;28;20071;-66
2022/02/18 07:58:58;;;;;;;27.52;10.85;;;;;;;-142.75;100.00;76412.81;5060389;28;20483;-65
2022/02/18 08:01:24;;;;;;;26.55;9.13;;;;;;;-142.75;100.00;76393.13;5056062;28;20098;-66
2022/02/18 08:03:51;;;;;;;19.10;8.57;;;;;;;-142.75;100.00;76383.28;5056284;28;20029;-65
2022/02/18 08:06:17;;;;;;;27.20;8.10;;;;;;;-142.75;100.00;76379.34;5055394;28;20283;-66
2022/02/18 08:08:44;;;;;;;18.50;7.63;;;;;;;-142.75;100.00;76361.63;5054158;28;20052;-66
2022/02/18 08:11:10;;;;;;;17.47;6.90;;;;;;;-142.75;100.00;76326.22;5055931;28;20620;-66
2022/02/18 08:13:36;;;;;;;28.05;10.05;;;;;;;-142.75;100.00;76322.28;5062777;28;20033;-66
2022/02/18 08:16:01;;;;;;;18.77;9.15;;;;;;;-142.75;100.00;76308.50;5068505;28;20025;-65
2022/02/18 08:18:26;;;;;;;19.40;6.75;;;;;;;-142.75;100.00;76304.56;5055866;28;20109;-65
2022/02/18 08:20:52;;;;;;;18.60;6.95;;;;;;;-142.75;100.00;76286.84;5054605;28;20033;-65
2022/02/18 08:23:18;;;;;;;17.75;6.00;;;;;;;-142.75;100.00;76282.91;5054445;28;20095;-66
2022/02/18 08:25:43;;;;;;;26.23;7.97;;;;;;;-142.75;100.00;76275.03;5055563;28;20059;-65
2022/02/18 08:28:08;;;;;;;18.98;6.95;;;;;;;-142.75;100.00;76278.97;5054282;28;20419;-66
2022/02/18 08:30:34;;;;;;;14.53;6.67;;;;;;;-142.75;100.00;76259.28;5055873;28;20060;-66
2022/02/18 08:32:59;;;;;;;17.25;7.65;;;;;;;-142.75;100.00;76243.53;5055762;28;20279;-67
2022/02/18 08:35:25;;;;;;;13.05;7.43;;;;;;;-142.75;100.00;76231.72;5055783;28;20043;-66
2022/02/18 08:37:50;;;;;;;16.17;7.60;;;;;;;-142.75;100.00;76237.63;5054941;28;20486;-65
2022/02/18 08:40:16;;;;;;;15.40;7.32;;;;;;;-142.75;100.00;76233.69;5054339;28;20518;-65
2022/02/18 08:42:41;;;;;;;13.33;6.30;;;;;;;-142.75;100.00;76212.03;5052646;28;20040;-65
2022/02/18 08:45:07;;;;;;;15.13;6.47;;;;;;;-142.75;100.00;76223.84;5052893;28;20305;-67
2022/02/18 08:47:32;;;;;;;;;;;;;;;-142.75;100.00;76184.50;5058505;28;20270;-66
2022/02/18 08:49:58;;;;;;;16.83;6.20;;;;;;;-142.75;100.00;76180.56;5072181;28;19913;-67
2022/02/18 08:52:23;;;;;;;16.13;5.00;;;;;;;-142.75;100.00;76154.97;5070970;28;20138;-67
2022/02/18 08:54:49;;;;;;;12.50;5.00;;;;;;;-142.75;100.00;76137.25;5070954;28;20055;-68
2022/02/18 08:57:14;;;;;;;10.27;4.03;;;;;;;-142.75;100.00;76125.44;5072537;28;20028;-66
2022/02/18 08:59:40;;;;;;;11.00;4.32;;;;;;;-142.75;100.00;76109.69;5061390;28;20198;-67
2022/02/18 09:02:06;;;;;;;8.77;3.83;;;;;;;-142.75;100.00;76093.94;5058316;28;20028;-67
2022/02/18 09:04:31;;;;;;;;;;;;;;;-142.75;100.00;76066.41;5072751;28;20024;-66
2022/02/18 09:06:57;;;;;;;9.43;5.13;;;;;;;-142.75;100.00;76066.41;5071442;28;19943;-66
2022/02/18 09:09:22;;;;;;;10.30;3.72;;;;;;;-142.75;100.00;76054.59;5071717;28;20073;-67
2022/02/18 09:11:48;;;;;;;10.48;4.03;;;;;;;-142.75;100.00;76050.66;5072275;28;20099;-68
2022/02/18 09:14:16;;;;;;;8.57;3.38;;;;;;;-142.75;100.00;76052.63;5053856;28;20044;-67
2022/02/18 09:16:44;;;;;;;10.33;3.70;;;;;;;-142.75;100.00;76030.97;5051804;28;20028;-67
2022/02/18 09:19:10;;;;;;;11.73;3.38;;;;;;;-142.75;100.00;76017.19;5051802;28;20568;-67
2022/02/18 09:21:35;;;;;;;10.30;3.00;;;;;;;-142.75;100.00;76015.22;5050247;28;20067;-66
2022/02/18 09:24:00;;;;;;;6.43;2.75;;;;;;;-142.75;100.00;75991.59;5050510;28;20071;-67
2022/02/18 09:26:27;;;;;;;10.00;2.72;;;;;;;-142.75;100.00;75985.69;5050235;28;20052;-67
2022/02/18 09:28:55;;;;;;;;;;;;;;;-142.75;100.00;75979.78;5051884;28;20515;-66
2022/02/18 09:31:21;;;;;;;7.63;2.38;;;;;;;-142.75;100.00;75967.97;5051384;28;20318;-66
2022/02/18 09:33:48;;;;;;;5.03;2.10;;;;;;;-142.75;100.00;75952.25;5050575;28;20021;-67
2022/02/18 09:36:13;;;;;;;7.13;2.22;;;;;;;-142.75;100.00;75960.13;5051262;28;20549;-66
2022/02/18 09:38:39;;;;;;;5.47;2.08;;;;;;;-142.75;100.00;75930.59;5051269;28;20104;-66
2022/02/18 09:41:07;;;;;;;9.02;2.42;;;;;;;-142.75;100.00;75942.41;5050314;28;20133;-66
2022/02/18 09:43:32;;;;;;;5.15;2.00;;;;;;;-142.75;100.00;75920.75;5051259;28;20053;-66
2022/02/18 09:46:00;;;;;;;6.07;1.80;;;;;;;-142.75;100.00;75899.09;5051259;28;20490;-66
2022/02/18 09:48:27;;;;;;;4.43;2.15;;;;;;;-142.75;100.00;75883.34;5051273;28;20100;-67
2022/02/18 09:50:52;;;;;;;8.63;2.40;;;;;;;-142.75;100.00;75883.34;5049896;28;20048;-67
2022/02/18 09:53:17;;;;;;;4.03;1.92;;;;;;;-142.75;100.00;75861.69;5049696;28;20529;-67
2022/02/18 09:55:44;;;;;;;4.82;1.88;;;;;;;-142.75;100.00;75857.78;5051098;28;20020;-65
2022/02/18 09:58:09;;;;;;;2.85;1.23;;;;;;;-142.75;100.00;75863.66;5050865;28;20052;-67
2022/02/18 10:00:36;;;;;;;5.25;2.38;;;;;;;-142.75;100.00;75859.72;5051142;28;20059;-67
2022/02/18 10:03:02;;;;;;;4.15;1.60;;;;;;;-142.75;100.00;75849.91;5051019;28;20024;-66
2022/02/18 10:05:27;;;;;;;2.42;1.40;;;;;;;-142.75;100.00;75830.22;5050700;28;20087;-66
2022/02/18 10:08:18;;;;;;;5.38;1.70;;;;;;;-142.75;100.00;75822.34;5049616;28;20025;-65
2022/02/18 10:10:58;;;;;;;6.97;1.75;;;;;;;-142.75;100.00;75812.50;5050983;28;20036;-66
2022/02/18 10:13:32;;;;;;;4.15;1.42;;;;;;;-142.75;100.00;75786.91;5050910;28;20495;-67
2022/02/18 10:15:59;;;;;;;3.15;1.20;;;;;;;-142.75;100.00;75779.03;5049481;28;20139;-65
2022/02/18 10:18:26;;;;;;;2.85;1.20;;;;;;;-142.75;100.00;75782.97;5049382;28;20128;-66
2022/02/18 10:20:53;;;;;;;1.60;0.88;;;;;;;-142.75;100.00;75759.38;5050522;28;20021;-67
2022/02/18 10:23:20;;;;;;;2.88;0.90;;;;;;;-142.75;100.00;75771.16;5050712;28;20363;-66
2022/02/18 10:25:47;;;;;;;2.17;1.02;;;;;;;-142.75;100.00;75753.47;5062920;28;20485;-67
2022/02/18 10:28:14;;;;;;;1.92;0.90;;;;;;;-142.75;100.00;75745.59;5070401;28;20025;-66
2022/02/18 10:30:40;;;;;;;1.92;0.70;;;;;;;-142.75;100.00;75723.94;5070379;28;20028;-66
2022/02/18 10:33:22;;;;;;;;;;;;;;;-142.75;100.00;75714.09;5070767;28;20028;-67
2022/02/18 10:35:56;;;;;;;2.65;0.60;;;;;;;-142.75;100.00;75710.16;5066357;28;19912;-66
2022/02/18 10:38:30;;;;;;;1.00;0.50;;;;;;;-142.75;100.00;75721.97;5049930;28;20450;-67
2022/02/18 10:40:59;;;;;;;1.50;0.60;;;;;;;-142.75;100.00;75690.47;5049050;28;20029;-67
2022/02/18 10:43:26;;;;;;;1.27;0.65;;;;;;;-142.75;100.00;75672.78;5050218;28;20041;-67
2022/02/18 10:46:01;;;;;;;2.35;0.73;;;;;;;-142.75;100.00;75664.91;5050247;28;20068;-66
2022/02/18 10:48:49;;;;;;;2.95;0.73;;;;;;;-142.75;100.00;75662.94;5050068;28;20071;-67
2022/02/18 10:51:20;;;;;;;2.17;0.70;;;;;;;-142.75;100.00;75643.25;5050158;28;20040;-66
2022/02/18 10:53:50;;;;;;;2.33;0.60;;;;;;;-142.75;100.00;75641.28;5049608;28;20028;-67
2022/02/18 10:56:17;;;;;;;4.47;0.70;;;;;;;-142.75;100.00;75653.09;5050008;28;20017;-66
2022/02/18 10:58:47;;;;;;;2.42;0.60;;;;;;;-142.75;100.00;75643.25;5048306;28;20029;-66